createdAt,value
2022-09-12T00:02:34.323Z,17.53
2022-09-12T00:08:20.930Z,17.46
2022-09-12T00:14:10.796Z,17.54
2022-09-12T00:19:57.666Z,17.69
2022-09-12T00:25:45.770Z,17.59
2022-09-12T00:31:32.665Z,17.65
2022-09-12T00:37:19.265Z,17.70
2022-09-12T00:43:06.620Z,17.88
2022-09-12T00:49:04.163Z,17.97
2022-09-12T00:55:02.716Z,18.11
2022-09-12T01:00:49.890Z,18.06
2022-09-12T01:06:40.507Z,18.20
2022-09-12T01:12:27.360Z,18.08
2022-09-12T01:18:30.482Z,18.31
2022-09-12T01:24:20.206Z,18.34
2022-09-12T01:30:21.097Z,18.05
2022-09-12T01:36:42.931Z,18.11
2022-09-12T01:42:35.049Z,18.13
2022-09-12T01:48:27.989Z,18.09
2022-09-12T01:54:21.357Z,18.07
2022-09-12T02:00:11.550Z,18.05
2022-09-12T02:06:08.203Z,18.14
2022-09-12T02:11:59.149Z,18.23
2022-09-12T02:17:49.488Z,18.27
2022-09-12T02:23:46.165Z,18.34
2022-09-12T02:29:32.831Z,18.31
2022-09-12T02:35:33.935Z,18.23
2022-09-12T02:41:21.723Z,18.24
2022-09-12T02:47:17.114Z,18.21
2022-09-12T02:53:05.619Z,18.03
2022-09-12T02:58:52.980Z,17.99
2022-09-12T03:04:51.631Z,17.91
2022-09-12T03:10:50.765Z,18.01
2022-09-12T03:16:43.282Z,18.05
2022-09-12T03:22:53.426Z,18.06
2022-09-12T03:28:42.502Z,17.88
2022-09-12T03:34:29.162Z,17.87
2022-09-12T03:40:15.830Z,17.82
2022-09-12T03:46:02.577Z,17.83
2022-09-12T03:51:49.242Z,17.88
2022-09-12T03:57:35.897Z,17.88
2022-09-12T04:03:22.732Z,17.90
2022-09-12T04:09:09.552Z,17.88
2022-09-12T04:14:56.132Z,17.86
2022-09-12T04:20:42.682Z,17.90
2022-09-12T04:26:29.911Z,17.95
2022-09-12T04:32:16.663Z,17.80
2022-09-12T04:38:03.875Z,17.74
2022-09-12T04:44:16.769Z,17.76
2022-09-12T04:50:03.606Z,17.68
2022-09-12T04:55:50.179Z,17.70
2022-09-12T05:01:37.121Z,17.67
2022-09-12T05:07:23.934Z,17.73
2022-09-12T05:13:10.555Z,17.80
2022-09-12T05:18:58.364Z,17.76
2022-09-12T05:24:49.873Z,17.78
2022-09-12T05:30:37.152Z,17.83
2022-09-12T05:36:26.783Z,17.86
2022-09-12T05:42:13.411Z,17.90
2022-09-12T05:47:59.979Z,18.05
2022-09-12T05:53:48.855Z,18.18
2022-09-12T05:59:35.681Z,18.22
2022-09-12T06:05:22.786Z,18.40
2022-09-12T06:11:11.661Z,18.60
2022-09-12T06:16:58.401Z,18.66
2022-09-12T06:22:45.097Z,18.80
2022-09-12T06:28:32.883Z,18.85
2022-09-12T06:34:19.951Z,19.05
2022-09-12T06:40:08.535Z,19.15
2022-09-12T06:45:55.291Z,19.24
2022-09-12T06:51:42.611Z,19.34
2022-09-12T06:57:31.403Z,19.40
2022-09-12T07:03:18.589Z,19.49
2022-09-12T07:09:07.136Z,19.46
2022-09-12T07:14:53.839Z,19.63
2022-09-12T07:20:40.987Z,19.88
2022-09-12T07:26:29.482Z,19.92
2022-09-12T07:32:16.118Z,19.94
2022-09-12T07:38:02.983Z,20.22
2022-09-12T07:44:00.511Z,20.39
2022-09-12T07:49:47.658Z,20.66
2022-09-12T07:55:34.290Z,20.91
2022-09-12T08:01:24.797Z,21.06
2022-09-12T08:07:12.034Z,21.01
2022-09-12T08:12:59.027Z,21.14
2022-09-12T08:18:45.820Z,21.22
2022-09-12T08:24:32.656Z,21.59
2022-09-12T08:30:19.348Z,21.91
2022-09-12T08:36:21.342Z,22.26
2022-09-12T08:48:04.777Z,22.60
2022-09-12T08:53:54.676Z,22.95
2022-09-12T08:59:44.812Z,23.68
2022-09-12T09:05:40.284Z,24.20
2022-09-12T09:11:52.591Z,24.11
2022-09-12T09:17:43.345Z,24.49
2022-09-12T09:23:34.850Z,24.71
2022-09-12T09:29:26.746Z,24.32
2022-09-12T09:35:18.766Z,24.36
2022-09-12T09:41:30.122Z,24.15
2022-09-12T09:47:18.863Z,24.10
2022-09-12T09:53:10.418Z,24.28
2022-09-12T09:58:57.249Z,24.54
2022-09-12T10:04:55.180Z,24.87
2022-09-12T10:11:03.735Z,25.32
2022-09-12T10:16:53.308Z,26.14
2022-09-12T10:22:40.006Z,26.72
2022-09-12T10:28:39.743Z,27.31
2022-09-12T10:34:39.288Z,27.15
2022-09-12T10:40:37.775Z,27.36
2022-09-12T10:46:29.461Z,27.64
2022-09-12T10:52:25.656Z,27.48
2022-09-12T10:58:22.461Z,26.79
2022-09-12T11:04:30.713Z,27.04
2022-09-12T11:10:17.258Z,26.78
2022-09-12T11:16:16.179Z,26.48
2022-09-12T11:22:11.778Z,26.71
2022-09-12T11:28:18.670Z,27.22
2022-09-12T11:34:10.271Z,27.58
2022-09-12T11:40:02.779Z,27.71
2022-09-12T11:45:51.004Z,27.51
2022-09-12T11:52:13.113Z,27.29
2022-09-12T11:58:00.047Z,26.89
2022-09-12T12:03:48.921Z,26.53
2022-09-12T12:09:36.462Z,26.72
2022-09-12T12:15:25.243Z,27.45
2022-09-12T12:21:29.411Z,27.80
2022-09-12T12:40:29.691Z,27.94
2022-09-12T12:46:23.950Z,27.46
2022-09-12T12:52:17.775Z,27.46
2022-09-12T12:58:19.475Z,27.63
2022-09-12T13:04:15.736Z,27.47
2022-09-12T13:10:04.379Z,27.71
2022-09-12T13:15:52.755Z,27.75
2022-09-12T13:21:39.526Z,27.43
2022-09-12T13:27:26.290Z,27.41
2022-09-12T13:33:28.531Z,27.12
2022-09-12T13:39:27.710Z,27.26
2022-09-12T13:45:14.269Z,27.18
2022-09-12T13:51:03.443Z,27.00
2022-09-12T13:56:50.186Z,26.94
2022-09-12T14:02:37.144Z,26.74
2022-09-12T14:08:24.111Z,26.91
2022-09-12T14:14:31.430Z,26.84
2022-09-12T14:20:20.418Z,26.74
2022-09-12T14:26:12.302Z,26.65
2022-09-12T14:32:04.286Z,26.63
2022-09-12T14:37:51.727Z,26.84
2022-09-12T14:43:44.354Z,26.81
2022-09-12T14:49:34.984Z,26.72
2022-09-12T14:55:46.413Z,26.68
2022-09-12T15:01:33.084Z,26.74
2022-09-12T15:07:59.505Z,26.43
2022-09-12T15:13:46.417Z,26.35
2022-09-12T15:19:33.131Z,26.29
2022-09-12T15:25:19.972Z,26.20
2022-09-12T15:31:12.260Z,26.31
2022-09-12T15:36:58.849Z,26.10
2022-09-12T15:42:45.517Z,26.03
2022-09-12T15:48:32.924Z,25.84
2022-09-12T15:54:20.789Z,25.73
2022-09-12T16:00:08.022Z,25.65
2022-09-12T16:06:01.689Z,25.47
2022-09-12T16:11:50.337Z,25.58
2022-09-12T16:17:37.084Z,25.51
2022-09-12T16:23:24.677Z,25.54
2022-09-12T16:29:13.722Z,25.48
2022-09-12T16:35:00.905Z,25.48
2022-09-12T16:40:47.712Z,25.39
2022-09-12T16:46:34.761Z,25.30
2022-09-12T16:52:21.415Z,25.15
2022-09-12T16:58:08.012Z,25.02
2022-09-12T17:03:59.210Z,24.87
2022-09-12T17:09:48.034Z,24.86
2022-09-12T17:15:36.933Z,24.62
2022-09-12T17:21:23.829Z,24.70
2022-09-12T17:27:10.472Z,24.55
2022-09-12T17:32:57.182Z,24.52
2022-09-12T17:38:45.907Z,24.43
2022-09-12T17:44:35.471Z,24.48
2022-09-12T17:50:31.830Z,24.38
2022-09-12T17:56:20.350Z,24.35
2022-09-12T18:02:16.115Z,24.24
2022-09-12T18:08:02.705Z,24.17
2022-09-12T18:13:49.374Z,24.09
2022-09-12T18:19:36.309Z,24.01
2022-09-12T18:25:23.221Z,24.00
2022-09-12T18:31:16.119Z,23.86
2022-09-12T18:37:05.247Z,23.93
2022-09-12T18:42:52.996Z,23.86
2022-09-12T18:48:42.247Z,23.78
2022-09-12T18:54:29.343Z,23.70
2022-09-12T19:00:17.081Z,23.55
2022-09-12T19:06:12.876Z,23.51
2022-09-12T19:11:59.582Z,23.41
2022-09-12T19:17:46.257Z,23.49
2022-09-12T19:23:35.355Z,23.36
2022-09-12T19:29:22.114Z,23.41
2022-09-12T19:35:09.357Z,23.45
2022-09-12T19:40:58.001Z,23.38
2022-09-12T19:46:45.353Z,23.34
2022-09-12T19:52:32.025Z,23.35
2022-09-12T19:58:18.622Z,23.03
2022-09-12T20:04:06.813Z,23.13
2022-09-12T20:09:54.952Z,23.05
2022-09-12T20:15:41.583Z,22.96
2022-09-12T20:21:32.088Z,22.82
2022-09-12T20:27:18.979Z,22.79
2022-09-12T20:33:05.937Z,22.98
2022-09-12T20:38:56.930Z,22.87
2022-09-12T20:44:43.687Z,22.82
2022-09-12T20:50:30.275Z,22.83
2022-09-12T20:56:16.860Z,22.70
2022-09-12T21:02:03.508Z,22.69
2022-09-12T21:07:50.135Z,22.60
2022-09-12T21:13:37.093Z,22.41
2022-09-12T21:19:23.739Z,22.55
2022-09-12T21:25:10.878Z,22.52
2022-09-12T21:30:57.686Z,22.38
2022-09-12T21:36:44.494Z,22.32
2022-09-12T21:42:31.796Z,22.27
2022-09-12T21:48:18.426Z,22.38
2022-09-12T21:54:05.148Z,22.33
2022-09-12T21:59:51.876Z,22.18
2022-09-12T22:05:40.169Z,22.26
2022-09-12T22:11:27.055Z,22.27
2022-09-12T22:17:14.275Z,22.18
2022-09-12T22:23:24.388Z,22.13
2022-09-12T22:29:13.308Z,21.92
2022-09-12T22:35:00.008Z,21.84
2022-09-12T22:40:46.578Z,21.78
2022-09-12T22:46:33.753Z,21.57
2022-09-12T22:52:20.435Z,21.71
2022-09-12T22:58:07.141Z,21.73
2022-09-12T23:03:54.022Z,21.71
2022-09-12T23:09:41.281Z,21.57
2022-09-12T23:15:28.255Z,21.45
2022-09-12T23:21:16.802Z,21.54
2022-09-12T23:27:03.401Z,21.38
2022-09-12T23:32:50.295Z,21.26
2022-09-12T23:38:37.004Z,21.30
2022-09-12T23:44:23.755Z,21.51
2022-09-12T23:50:10.378Z,21.57
2022-09-12T23:55:57.616Z,21.46
